createdAt,value
2019-03-31T00:01:07.306Z,47.23
2019-03-31T00:03:24.900Z,39.97
2019-03-31T00:05:54.247Z,40.40
2019-03-31T00:08:23.635Z,38.63
2019-03-31T00:10:53.066Z,38.37
2019-03-31T00:13:22.519Z,44.27
2019-03-31T00:15:51.872Z,41.47
2019-03-31T00:18:21.250Z,38.37
2019-03-31T00:20:50.856Z,42.43
2019-03-31T00:23:20.388Z,41.73
2019-03-31T00:25:51.511Z,44.93
2019-03-31T00:28:21.379Z,45.67
2019-03-31T00:30:51.235Z,40.37
2019-03-31T00:33:20.738Z,40.07
2019-03-31T00:35:50.231Z,33.63
2019-03-31T00:38:19.681Z,34.77
2019-03-31T00:40:49.046Z,38.20
2019-03-31T00:43:18.571Z,36.10
2019-03-31T00:45:48.777Z,37.97
2019-03-31T00:48:18.204Z,37.23
2019-03-31T00:50:47.658Z,31.87
2019-03-31T00:53:17.060Z,37.73
2019-03-31T00:55:46.458Z,35.90
2019-03-31T00:58:15.988Z,36.03
2019-03-31T01:00:48.029Z,37.93
2019-03-31T01:03:19.313Z,33.20
2019-03-31T01:05:50.391Z,32.70
2019-03-31T01:08:20.150Z,33.37
2019-03-31T01:10:50.051Z,33.80
2019-03-31T01:13:19.592Z,36.67
2019-03-31T01:15:51.218Z,27.97
2019-03-31T01:18:20.686Z,26.00
2019-03-31T01:20:50.120Z,30.33
2019-03-31T01:23:19.512Z,27.87
2019-03-31T01:25:49.396Z,23.63
2019-03-31T01:28:19.215Z,25.23
2019-03-31T01:30:48.785Z,25.50
2019-03-31T01:33:19.015Z,23.23
2019-03-31T01:35:48.382Z,23.87
2019-03-31T01:38:18.581Z,21.77
2019-03-31T01:40:48.075Z,20.80
2019-03-31T01:43:17.597Z,22.17
2019-03-31T01:45:47.127Z,21.70
2019-03-31T01:48:16.555Z,22.13
2019-03-31T01:50:46.375Z,17.10
2019-03-31T01:53:15.735Z,16.67
2019-03-31T01:55:45.269Z,19.03
2019-03-31T01:58:14.776Z,21.87
2019-03-31T02:00:46.748Z,14.00
2019-03-31T02:03:16.298Z,17.03
2019-03-31T02:05:45.755Z,14.07
2019-03-31T02:08:15.167Z,20.23
2019-03-31T02:10:44.629Z,13.17
2019-03-31T02:13:14.199Z,14.10
2019-03-31T02:15:43.660Z,16.33
2019-03-31T02:18:13.011Z,14.07
2019-03-31T02:20:42.473Z,16.27
2019-03-31T02:23:11.963Z,12.90
2019-03-31T02:25:41.339Z,14.97
2019-03-31T02:28:30.052Z,18.50
2019-03-31T02:30:59.575Z,17.63
2019-03-31T02:33:28.951Z,18.63
2019-03-31T02:35:58.553Z,19.50
2019-03-31T02:38:28.075Z,7.27
2019-03-31T02:40:57.442Z,7.60
2019-03-31T02:43:26.902Z,3.47
2019-03-31T02:45:56.396Z,6.80
2019-03-31T02:48:25.851Z,6.17
2019-03-31T02:50:55.203Z,6.27
2019-03-31T02:53:24.799Z,7.07
2019-03-31T02:55:55.956Z,10.10
2019-03-31T02:58:27.986Z,9.03
2019-03-31T03:00:57.672Z,6.77
2019-03-31T03:03:29.882Z,7.10
2019-03-31T03:06:00.936Z,5.03
2019-03-31T03:08:33.104Z,6.70
2019-03-31T03:11:23.310Z,4.67
2019-03-31T03:13:53.387Z,3.77
2019-03-31T03:16:22.862Z,8.23
2019-03-31T03:18:52.334Z,4.93
2019-03-31T03:21:24.152Z,7.23
2019-03-31T03:23:53.309Z,4.83
2019-03-31T03:26:23.038Z,10.63
2019-03-31T03:28:52.561Z,9.47
2019-03-31T03:31:22.015Z,17.13
2019-03-31T03:33:51.513Z,13.43
2019-03-31T03:36:21.189Z,11.33
2019-03-31T03:38:50.774Z,24.27
2019-03-31T03:41:20.536Z,17.80
2019-03-31T03:43:55.601Z,15.83
2019-03-31T03:46:21.053Z,17.93
2019-03-31T03:48:50.514Z,17.33
2019-03-31T03:51:20.041Z,19.43
2019-03-31T03:53:49.435Z,15.07
2019-03-31T03:56:18.933Z,15.10
2019-03-31T03:58:48.477Z,14.60
2019-03-31T04:01:19.587Z,19.70
2019-03-31T04:03:49.063Z,22.20
2019-03-31T04:06:19.386Z,15.17
2019-03-31T04:08:48.847Z,17.80
2019-03-31T04:11:22.019Z,17.10
2019-03-31T04:13:51.818Z,20.50
2019-03-31T04:16:21.491Z,21.97
2019-03-31T04:18:50.903Z,19.13
2019-03-31T04:21:20.440Z,16.03
2019-03-31T04:23:51.378Z,13.97
2019-03-31T04:26:21.032Z,26.50
2019-03-31T04:28:50.493Z,18.10
2019-03-31T04:31:20.032Z,15.10
2019-03-31T04:33:52.612Z,20.43
2019-03-31T04:36:20.637Z,15.90
2019-03-31T04:38:50.092Z,14.67
2019-03-31T04:41:19.535Z,20.20
2019-03-31T04:43:49.060Z,26.17
2019-03-31T04:46:18.523Z,23.07
2019-03-31T04:48:47.917Z,14.23
2019-03-31T04:51:17.444Z,14.30
2019-03-31T04:53:47.643Z,14.37
2019-03-31T04:56:17.004Z,20.87
2019-03-31T04:58:46.443Z,19.90
2019-03-31T05:01:16.053Z,19.03
2019-03-31T05:03:45.435Z,18.03
2019-03-31T05:06:14.820Z,17.17
2019-03-31T05:08:44.343Z,17.00
2019-03-31T05:11:13.971Z,18.93
2019-03-31T05:13:44.308Z,13.63
2019-03-31T05:16:13.857Z,13.67
2019-03-31T05:18:43.398Z,25.30
2019-03-31T05:21:12.864Z,21.17
2019-03-31T05:23:42.250Z,17.50
2019-03-31T05:26:12.497Z,21.23
2019-03-31T05:28:44.176Z,24.00
2019-03-31T05:31:12.966Z,17.43
2019-03-31T05:33:43.945Z,25.80
2019-03-31T05:36:13.405Z,23.20
2019-03-31T05:38:42.827Z,21.47
2019-03-31T05:41:12.293Z,20.23
2019-03-31T05:43:41.758Z,18.00
2019-03-31T05:46:11.220Z,15.87
2019-03-31T05:48:40.602Z,17.50
2019-03-31T05:51:10.070Z,15.83
2019-03-31T05:53:39.516Z,16.67
2019-03-31T05:56:08.995Z,20.70
2019-03-31T05:58:38.434Z,18.80
2019-03-31T06:01:08.108Z,17.80
2019-03-31T06:03:37.483Z,19.33
2019-03-31T06:06:06.935Z,18.70
2019-03-31T06:08:36.311Z,16.23
2019-03-31T06:11:05.804Z,14.90
2019-03-31T06:13:35.185Z,17.80
2019-03-31T06:16:04.629Z,16.20
2019-03-31T06:18:34.084Z,17.97
2019-03-31T06:21:03.759Z,12.60
2019-03-31T06:23:33.260Z,17.63
2019-03-31T06:26:02.708Z,18.73
2019-03-31T06:28:32.223Z,19.67
2019-03-31T06:31:01.799Z,16.67
2019-03-31T06:33:31.252Z,17.50
2019-03-31T06:36:00.622Z,19.50
2019-03-31T06:38:30.132Z,20.47
2019-03-31T06:40:59.670Z,16.67
2019-03-31T06:43:29.631Z,15.00
2019-03-31T06:45:59.075Z,12.33
2019-03-31T06:48:28.459Z,16.93
2019-03-31T06:50:57.842Z,16.70
2019-03-31T06:53:27.395Z,19.03
2019-03-31T06:55:56.915Z,17.70
2019-03-31T06:58:26.375Z,18.00
2019-03-31T07:00:55.755Z,19.60
2019-03-31T07:03:25.144Z,22.07
2019-03-31T07:05:54.563Z,17.20
2019-03-31T07:08:24.020Z,18.27
2019-03-31T07:10:53.362Z,15.50
2019-03-31T07:13:22.750Z,17.53
2019-03-31T07:15:52.099Z,11.97
2019-03-31T07:18:21.484Z,17.43
2019-03-31T07:20:51.209Z,14.97
2019-03-31T07:23:20.626Z,12.67
2019-03-31T07:25:49.983Z,20.77
2019-03-31T07:28:19.502Z,18.33
2019-03-31T07:30:48.862Z,15.43
2019-03-31T07:33:18.237Z,16.80
2019-03-31T07:35:47.591Z,16.30
2019-03-31T07:38:17.138Z,19.77
2019-03-31T07:40:46.856Z,18.77
2019-03-31T07:43:18.194Z,16.30
2019-03-31T07:45:47.630Z,22.50
2019-03-31T07:48:17.363Z,19.43
2019-03-31T07:50:46.782Z,16.73
2019-03-31T07:53:16.163Z,15.67
2019-03-31T07:55:45.582Z,11.10
2019-03-31T07:58:15.244Z,13.37
2019-03-31T08:00:44.679Z,12.70
2019-03-31T08:03:14.081Z,16.70
2019-03-31T08:05:43.511Z,13.50
2019-03-31T08:08:12.989Z,13.67
2019-03-31T08:10:42.351Z,13.93
2019-03-31T08:13:11.812Z,15.77
2019-03-31T08:15:41.171Z,13.43
2019-03-31T08:18:10.732Z,11.07
2019-03-31T08:20:40.121Z,16.70
2019-03-31T08:23:09.594Z,12.07
2019-03-31T08:25:39.073Z,14.23
2019-03-31T08:28:08.496Z,13.43
2019-03-31T08:30:37.901Z,10.83
2019-03-31T08:33:07.362Z,14.40
2019-03-31T08:35:47.303Z,14.70
2019-03-31T08:38:08.426Z,9.87
2019-03-31T08:40:37.810Z,14.13
2019-03-31T08:43:07.274Z,15.70
2019-03-31T08:45:36.723Z,16.43
2019-03-31T08:48:07.700Z,11.77
2019-03-31T08:50:37.075Z,20.00
2019-03-31T08:53:06.469Z,13.13
2019-03-31T08:55:36.991Z,10.37
2019-03-31T08:58:06.391Z,15.07
2019-03-31T09:03:28.627Z,11.03
2019-03-31T09:06:01.967Z,13.40
2019-03-31T09:08:29.367Z,11.90
2019-03-31T09:10:58.859Z,13.10
2019-03-31T09:13:28.252Z,17.13
2019-03-31T09:15:57.751Z,12.00
2019-03-31T09:18:27.153Z,10.67
2019-03-31T09:20:56.655Z,12.60
2019-03-31T09:23:26.125Z,14.20
2019-03-31T09:25:55.472Z,12.30
2019-03-31T09:28:24.872Z,14.33
2019-03-31T09:30:54.224Z,13.87
2019-03-31T09:33:23.684Z,14.33
2019-03-31T09:35:53.190Z,9.83
2019-03-31T09:38:22.572Z,12.53
2019-03-31T09:40:53.546Z,9.23
2019-03-31T09:43:23.050Z,13.83
2019-03-31T09:45:52.528Z,9.80
2019-03-31T09:48:22.080Z,11.70
2019-03-31T09:50:52.512Z,11.13
2019-03-31T09:53:21.910Z,11.93
2019-03-31T09:55:51.323Z,12.87
2019-03-31T09:58:20.712Z,10.73
2019-03-31T10:00:52.019Z,10.23
2019-03-31T10:03:22.027Z,11.47
2019-03-31T10:05:51.551Z,10.67
2019-03-31T10:08:22.201Z,18.00
2019-03-31T10:10:51.952Z,14.83
2019-03-31T10:13:21.350Z,10.83
2019-03-31T10:15:52.596Z,9.30
2019-03-31T10:18:21.974Z,8.00
2019-03-31T10:20:51.523Z,10.93
2019-03-31T10:23:20.978Z,7.50
2019-03-31T10:25:50.377Z,6.27
2019-03-31T10:28:19.782Z,10.23
2019-03-31T10:30:49.157Z,10.40
2019-03-31T10:33:18.646Z,10.83
2019-03-31T10:35:48.037Z,12.17
2019-03-31T10:38:17.547Z,15.10
2019-03-31T10:40:46.979Z,9.67
2019-03-31T10:43:16.499Z,7.13
2019-03-31T10:45:45.951Z,11.87
2019-03-31T10:48:20.914Z,10.53
2019-03-31T10:50:46.545Z,9.00
2019-03-31T10:53:16.652Z,5.97
2019-03-31T10:55:46.017Z,9.60
2019-03-31T10:58:15.476Z,11.60
2019-03-31T11:00:44.998Z,6.53
2019-03-31T11:03:14.486Z,6.63
2019-03-31T11:05:43.934Z,10.93
2019-03-31T11:08:13.348Z,9.50
2019-03-31T11:10:42.912Z,11.03
2019-03-31T11:13:12.310Z,8.33
2019-03-31T11:15:41.683Z,5.47
2019-03-31T11:18:11.068Z,4.57
2019-03-31T11:20:40.626Z,7.20
2019-03-31T11:23:20.656Z,8.53
2019-03-31T11:25:50.174Z,12.07
2019-03-31T11:28:19.575Z,11.03
2019-03-31T11:30:49.184Z,7.77
2019-03-31T11:33:18.649Z,10.60
2019-03-31T11:35:48.190Z,12.10
2019-03-31T11:38:17.609Z,9.10
2019-03-31T11:40:47.236Z,13.30
2019-03-31T11:43:16.800Z,12.07
2019-03-31T11:45:46.275Z,14.73
2019-03-31T11:48:15.711Z,11.97
2019-03-31T11:51:00.551Z,12.93
2019-03-31T11:53:30.004Z,11.57
2019-03-31T11:56:01.143Z,15.73
2019-03-31T11:58:32.232Z,12.47
2019-03-31T12:01:01.687Z,12.33
2019-03-31T12:03:31.665Z,9.03
2019-03-31T12:06:01.271Z,15.03
2019-03-31T12:08:30.676Z,12.87
2019-03-31T12:11:00.262Z,12.33
2019-03-31T12:13:29.727Z,12.07
2019-03-31T12:15:59.087Z,13.97
2019-03-31T12:18:28.543Z,13.50
2019-03-31T12:20:57.900Z,12.73
2019-03-31T12:23:27.434Z,11.97
2019-03-31T12:25:56.795Z,11.63
2019-03-31T12:28:26.241Z,14.03
2019-03-31T12:30:55.776Z,7.80
2019-03-31T12:33:25.195Z,18.53
2019-03-31T12:35:56.202Z,12.07
2019-03-31T12:38:25.558Z,16.40
2019-03-31T12:40:56.501Z,13.80
2019-03-31T12:43:25.920Z,10.97
2019-03-31T12:45:55.757Z,8.83
2019-03-31T12:48:25.330Z,10.17
2019-03-31T12:50:54.769Z,15.67
2019-03-31T12:53:24.228Z,12.60
2019-03-31T12:56:00.224Z,13.90
2019-03-31T12:58:26.233Z,11.27
2019-03-31T13:00:55.626Z,12.37
2019-03-31T13:03:25.081Z,11.27
2019-03-31T13:05:54.662Z,12.03
2019-03-31T13:08:24.058Z,11.23
2019-03-31T13:10:53.440Z,11.37
2019-03-31T13:13:22.839Z,11.73
2019-03-31T13:15:52.458Z,10.23
2019-03-31T13:18:23.480Z,11.13
2019-03-31T13:20:52.929Z,14.57
2019-03-31T13:23:24.127Z,9.77
2019-03-31T13:25:54.672Z,15.57
2019-03-31T13:28:24.054Z,17.27
2019-03-31T13:30:53.635Z,10.97
2019-03-31T13:33:23.014Z,11.07
2019-03-31T13:35:53.381Z,11.03
2019-03-31T13:38:23.532Z,12.10
2019-03-31T13:40:53.145Z,14.80
2019-03-31T13:43:22.528Z,15.70
2019-03-31T13:45:52.077Z,13.67
2019-03-31T13:48:21.478Z,13.80
2019-03-31T13:50:50.982Z,16.17
2019-03-31T13:53:20.389Z,12.90
2019-03-31T13:55:51.404Z,14.30
2019-03-31T13:58:23.008Z,16.23
2019-03-31T14:00:57.017Z,13.93
2019-03-31T14:03:24.731Z,12.03
2019-03-31T14:05:54.078Z,12.33
2019-03-31T14:08:26.028Z,13.13
2019-03-31T14:10:54.515Z,16.60
2019-03-31T14:13:24.303Z,11.20
2019-03-31T14:15:55.312Z,17.20
2019-03-31T14:18:24.694Z,13.50
2019-03-31T14:20:54.113Z,9.90
2019-03-31T14:23:23.633Z,13.60
2019-03-31T14:25:52.988Z,10.57
2019-03-31T14:28:22.498Z,11.07
2019-03-31T14:30:51.983Z,12.93
2019-03-31T14:33:24.611Z,12.33
2019-03-31T14:35:54.041Z,12.90
2019-03-31T14:38:23.522Z,12.87
2019-03-31T14:40:52.932Z,12.87
2019-03-31T14:43:22.295Z,14.87
2019-03-31T14:45:51.771Z,10.93
2019-03-31T14:48:21.259Z,10.43
2019-03-31T14:50:50.713Z,12.40
2019-03-31T14:53:21.819Z,12.63
2019-03-31T14:55:52.911Z,11.27
2019-03-31T14:58:22.297Z,11.53
2019-03-31T15:00:51.771Z,14.43
2019-03-31T15:03:21.231Z,10.30
2019-03-31T15:05:50.749Z,16.03
2019-03-31T15:08:20.255Z,10.60
2019-03-31T15:10:49.644Z,12.40
2019-03-31T15:13:18.990Z,13.40
2019-03-31T15:15:48.473Z,9.93
2019-03-31T15:18:17.834Z,11.73
2019-03-31T15:20:47.343Z,15.57
2019-03-31T15:23:16.867Z,10.27
2019-03-31T15:25:46.415Z,19.47
2019-03-31T15:28:15.865Z,16.77
2019-03-31T15:30:45.315Z,19.50
2019-03-31T15:33:14.719Z,15.83
2019-03-31T15:35:44.290Z,15.27
2019-03-31T15:38:13.761Z,12.47
2019-03-31T15:40:43.237Z,15.47
2019-03-31T15:43:25.848Z,18.47
2019-03-31T15:45:56.243Z,12.33
2019-03-31T15:48:25.770Z,11.73
2019-03-31T15:50:55.217Z,10.93
2019-03-31T15:53:24.678Z,10.47
2019-03-31T15:55:54.152Z,12.23
2019-03-31T15:58:23.625Z,14.50
2019-03-31T16:00:53.223Z,16.53
2019-03-31T16:03:22.696Z,13.70
2019-03-31T16:05:52.249Z,11.73
2019-03-31T16:08:21.681Z,15.77
2019-03-31T16:10:51.059Z,9.40
2019-03-31T16:13:20.518Z,13.87
2019-03-31T16:15:49.989Z,17.07
2019-03-31T16:18:19.460Z,11.13
2019-03-31T16:20:49.090Z,10.03
2019-03-31T16:23:18.462Z,13.50
2019-03-31T16:25:49.482Z,14.13
2019-03-31T16:28:19.054Z,14.70
2019-03-31T16:30:51.802Z,13.80
2019-03-31T16:33:21.268Z,11.97
2019-03-31T16:35:50.659Z,12.53
2019-03-31T16:38:20.241Z,7.83
2019-03-31T16:40:49.763Z,13.97
2019-03-31T16:43:19.232Z,12.60
2019-03-31T16:45:48.755Z,13.50
2019-03-31T16:48:18.110Z,13.93
2019-03-31T16:50:47.559Z,11.37
2019-03-31T16:53:16.989Z,10.17
2019-03-31T16:55:46.475Z,16.20
2019-03-31T16:58:15.931Z,11.30
2019-03-31T17:00:45.339Z,13.27
2019-03-31T17:03:18.097Z,11.70
2019-03-31T17:05:45.881Z,10.87
2019-03-31T17:08:15.401Z,15.17
2019-03-31T17:10:44.740Z,8.90
2019-03-31T17:13:14.198Z,12.33
2019-03-31T17:15:43.548Z,12.00
2019-03-31T17:18:13.008Z,17.77
2019-03-31T17:20:42.352Z,10.97
2019-03-31T17:23:11.746Z,7.90
2019-03-31T17:25:41.240Z,16.23
2019-03-31T17:28:10.759Z,11.27
2019-03-31T17:30:40.106Z,9.50
2019-03-31T17:33:11.196Z,9.87
2019-03-31T17:35:40.539Z,9.03
2019-03-31T17:38:09.917Z,8.90
2019-03-31T17:40:39.277Z,11.20
2019-03-31T17:43:08.717Z,12.30
2019-03-31T17:45:38.083Z,10.87
2019-03-31T17:48:07.543Z,9.10
2019-03-31T17:50:36.919Z,6.17
2019-03-31T17:53:06.309Z,9.10
2019-03-31T17:55:35.852Z,3.03
2019-03-31T17:58:05.400Z,7.73
2019-03-31T18:00:34.816Z,9.23
2019-03-31T18:03:17.013Z,10.80
2019-03-31T18:05:46.417Z,10.43
2019-03-31T18:08:15.757Z,9.90
2019-03-31T18:10:46.626Z,9.10
2019-03-31T18:13:16.047Z,9.13
2019-03-31T18:15:45.673Z,9.77
2019-03-31T18:18:15.148Z,6.80
2019-03-31T18:20:44.663Z,5.80
2019-03-31T18:23:14.045Z,7.50
2019-03-31T18:25:56.559Z,7.17
2019-03-31T18:28:26.059Z,12.30
2019-03-31T18:31:08.718Z,7.73
2019-03-31T18:33:38.162Z,8.97
2019-03-31T18:36:20.802Z,8.23
2019-03-31T18:38:50.299Z,5.57
2019-03-31T18:41:19.700Z,8.23
2019-03-31T18:43:51.596Z,13.77
2019-03-31T18:46:21.512Z,7.57
2019-03-31T18:48:50.964Z,11.70
2019-03-31T18:51:20.347Z,7.03
2019-03-31T18:53:54.269Z,9.40
2019-03-31T18:56:25.644Z,5.73
2019-03-31T18:59:05.512Z,9.13
2019-03-31T19:01:36.604Z,10.07
2019-03-31T19:04:24.237Z,8.90
2019-03-31T19:06:55.264Z,8.37
2019-03-31T19:09:26.295Z,8.43
2019-03-31T19:11:57.320Z,8.67
2019-03-31T19:14:31.504Z,9.00
2019-03-31T19:17:19.566Z,4.37
2019-03-31T19:19:53.256Z,8.47
2019-03-31T19:22:30.163Z,9.13
2019-03-31T19:25:13.312Z,6.10
2019-03-31T19:27:50.176Z,13.73
2019-03-31T19:30:39.828Z,9.33
2019-03-31T19:33:23.411Z,11.47
2019-03-31T19:36:09.283Z,7.03
2019-03-31T19:38:40.310Z,10.13
2019-03-31T19:41:17.175Z,7.27
2019-03-31T19:43:48.416Z,9.30
2019-03-31T19:46:23.240Z,10.60
2019-03-31T19:49:00.560Z,7.30
2019-03-31T19:51:46.795Z,11.17
2019-03-31T19:54:34.410Z,7.97
2019-03-31T19:57:20.813Z,12.90
2019-03-31T19:59:54.679Z,5.23
2019-03-31T20:02:25.664Z,8.20
2019-03-31T20:05:11.815Z,4.77
2019-03-31T20:08:02.215Z,7.23
2019-03-31T20:10:34.847Z,7.67
2019-03-31T20:13:15.383Z,6.03
2019-03-31T20:15:52.329Z,11.83
2019-03-31T20:18:26.156Z,6.27
2019-03-31T20:21:00.138Z,9.43
2019-03-31T20:23:31.167Z,6.07
2019-03-31T20:26:02.343Z,12.13
2019-03-31T20:28:33.675Z,15.60
2019-03-31T20:31:13.640Z,4.83
2019-03-31T20:33:49.369Z,11.23
2019-03-31T20:36:35.721Z,9.57
2019-03-31T20:39:15.793Z,6.63
2019-03-31T20:41:55.860Z,9.73
2019-03-31T20:44:25.365Z,9.60
2019-03-31T20:46:54.776Z,11.50
2019-03-31T20:49:39.021Z,10.50
2019-03-31T20:52:08.424Z,9.07
2019-03-31T20:54:50.920Z,7.43
2019-03-31T20:57:34.043Z,10.67
2019-03-31T21:00:04.959Z,5.80
2019-03-31T21:02:34.376Z,9.50
2019-03-31T21:05:04.468Z,16.93
2019-03-31T21:07:34.110Z,11.27
2019-03-31T21:10:04.662Z,9.40
2019-03-31T21:12:34.154Z,7.97
2019-03-31T21:15:04.417Z,6.90
2019-03-31T21:17:33.880Z,9.07
2019-03-31T21:20:03.813Z,8.83
2019-03-31T21:22:33.276Z,8.93
2019-03-31T21:25:06.015Z,7.60
2019-03-31T21:27:35.359Z,6.87
2019-03-31T21:30:07.276Z,9.73
2019-03-31T21:32:36.622Z,11.17
2019-03-31T21:35:06.955Z,6.63
2019-03-31T21:37:36.334Z,10.53
2019-03-31T21:40:07.016Z,5.47
2019-03-31T21:42:36.436Z,9.40
2019-03-31T21:45:06.538Z,7.70
2019-03-31T21:47:35.887Z,6.93
2019-03-31T21:50:06.870Z,8.57
2019-03-31T21:52:36.336Z,7.13
2019-03-31T21:55:06.660Z,9.67
2019-03-31T21:57:36.545Z,7.57
2019-03-31T22:00:12.283Z,9.00
2019-03-31T22:02:41.970Z,9.43
2019-03-31T22:05:11.699Z,6.43
2019-03-31T22:07:41.127Z,9.00
2019-03-31T22:10:10.746Z,12.93
2019-03-31T22:12:40.295Z,4.27
2019-03-31T22:15:09.883Z,3.83
2019-03-31T22:17:39.327Z,6.47
2019-03-31T22:20:08.932Z,8.03
2019-03-31T22:22:38.387Z,13.03
2019-03-31T22:25:07.841Z,7.27
2019-03-31T22:27:37.296Z,5.83
2019-03-31T22:30:07.811Z,12.03
2019-03-31T22:32:37.191Z,7.50
2019-03-31T22:35:06.715Z,7.40
2019-03-31T22:37:36.105Z,10.07
2019-03-31T22:40:06.566Z,8.47
2019-03-31T22:42:35.952Z,7.93
2019-03-31T22:45:07.251Z,8.47
2019-03-31T22:47:36.647Z,11.47
2019-03-31T22:50:08.070Z,7.03
2019-03-31T22:52:37.522Z,9.87
2019-03-31T22:55:07.366Z,11.47
2019-03-31T22:57:36.738Z,9.50
2019-03-31T23:00:07.254Z,9.30
2019-03-31T23:02:36.628Z,6.50
2019-03-31T23:05:06.003Z,10.03
2019-03-31T23:07:35.396Z,8.17
2019-03-31T23:10:06.448Z,6.37
2019-03-31T23:12:36.019Z,7.30
2019-03-31T23:15:06.716Z,9.63
2019-03-31T23:17:36.234Z,6.33
2019-03-31T23:20:06.330Z,9.30
2019-03-31T23:22:35.719Z,6.27
2019-03-31T23:25:06.339Z,10.47
2019-03-31T23:27:36.385Z,11.10
2019-03-31T23:30:08.895Z,8.67
2019-03-31T23:32:38.283Z,4.37
2019-03-31T23:35:08.555Z,6.23
2019-03-31T23:37:37.995Z,9.00
2019-03-31T23:40:07.490Z,6.70
2019-03-31T23:42:37.034Z,9.13
2019-03-31T23:45:07.393Z,8.90
2019-03-31T23:47:36.775Z,7.43
2019-03-31T23:50:06.771Z,7.93
2019-03-31T23:52:36.163Z,6.97
2019-03-31T23:55:06.218Z,7.97
2019-03-31T23:57:43.110Z,7.10
